sensor_id;sensor_type;location;lat;lon;timestamp;P1;durP1;ratioP1;P2;durP2;ratioP2
22284;SDS011;11311;52.192;20.900;2023-07-13T00:02:00;12.47;;;11.17;;
22284;SDS011;11311;52.192;20.900;2023-07-13T00:04:29;12.00;;;10.75;;
22284;SDS011;11311;52.192;20.900;2023-07-13T00:07:00;15.85;;;11.18;;
22284;SDS011;11311;52.192;20.900;2023-07-13T00:09:29;14.43;;;11.03;;
22284;SDS011;11311;52.192;20.900;2023-07-13T00:11:58;18.65;;;12.43;;
22284;SDS011;11311;52.192;20.900;2023-07-13T00:14:28;14.60;;;12.35;;
22284;SDS011;11311;52.192;20.900;2023-07-13T00:19:27;13.32;;;12.10;;
22284;SDS011;11311;52.192;20.900;2023-07-13T00:21:56;16.15;;;11.25;;
22284;SDS011;11311;52.192;20.900;2023-07-13T00:24:25;13.27;;;11.90;;
22284;SDS011;11311;52.192;20.900;2023-07-13T00:26:54;13.77;;;12.07;;
22284;SDS011;11311;52.192;20.900;2023-07-13T00:29:25;13.80;;;12.50;;
22284;SDS011;11311;52.192;20.900;2023-07-13T00:31:55;20.15;;;13.20;;
22284;SDS011;11311;52.192;20.900;2023-07-13T00:34:24;15.77;;;14.30;;
22284;SDS011;11311;52.192;20.900;2023-07-13T00:36:53;15.93;;;14.23;;
22284;SDS011;11311;52.192;20.900;2023-07-13T00:39:22;18.63;;;14.30;;
22284;SDS011;11311;52.192;20.900;2023-07-13T00:41:51;18.38;;;14.48;;
22284;SDS011;11311;52.192;20.900;2023-07-13T00:44:20;14.57;;;13.30;;
22284;SDS011;11311;52.192;20.900;2023-07-13T00:46:50;15.97;;;14.07;;
22284;SDS011;11311;52.192;20.900;2023-07-13T00:49:21;16.60;;;13.13;;
22284;SDS011;11311;52.192;20.900;2023-07-13T00:51:54;14.88;;;13.48;;
22284;SDS011;11311;52.192;20.900;2023-07-13T00:54:26;17.73;;;12.65;;
22284;SDS011;11311;52.192;20.900;2023-07-13T00:56:59;17.15;;;13.60;;
22284;SDS011;11311;52.192;20.900;2023-07-13T00:59:30;14.90;;;13.48;;
22284;SDS011;11311;52.192;20.900;2023-07-13T01:02:01;16.20;;;14.60;;
22284;SDS011;11311;52.192;20.900;2023-07-13T01:04:32;16.98;;;15.07;;
22284;SDS011;11311;52.192;20.900;2023-07-13T01:07:01;15.48;;;13.85;;
22284;SDS011;11311;52.192;20.900;2023-07-13T01:09:30;16.17;;;14.48;;
22284;SDS011;11311;52.192;20.900;2023-07-13T01:11:59;16.80;;;15.05;;
22284;SDS011;11311;52.192;20.900;2023-07-13T01:14:30;18.38;;;15.13;;
22284;SDS011;11311;52.192;20.900;2023-07-13T01:16:59;22.15;;;16.30;;
22284;SDS011;11311;52.192;20.900;2023-07-13T01:19:30;19.35;;;14.43;;
22284;SDS011;11311;52.192;20.900;2023-07-13T01:22:06;19.55;;;14.85;;
22284;SDS011;11311;52.192;20.900;2023-07-13T01:24:40;16.92;;;15.23;;
22284;SDS011;11311;52.192;20.900;2023-07-13T01:27:12;20.23;;;16.80;;
22284;SDS011;11311;52.192;20.900;2023-07-13T01:29:44;18.27;;;15.43;;
22284;SDS011;11311;52.192;20.900;2023-07-13T01:32:15;17.15;;;15.35;;
22284;SDS011;11311;52.192;20.900;2023-07-13T01:34:49;16.08;;;14.38;;
22284;SDS011;11311;52.192;20.900;2023-07-13T01:37:23;17.80;;;14.98;;
22284;SDS011;11311;52.192;20.900;2023-07-13T01:39:53;20.67;;;14.55;;
22284;SDS011;11311;52.192;20.900;2023-07-13T01:42:22;21.00;;;15.95;;
22284;SDS011;11311;52.192;20.900;2023-07-13T01:44:51;17.42;;;15.07;;
22284;SDS011;11311;52.192;20.900;2023-07-13T01:47:19;16.08;;;14.57;;
22284;SDS011;11311;52.192;20.900;2023-07-13T01:49:48;15.70;;;14.10;;
22284;SDS011;11311;52.192;20.900;2023-07-13T01:52:19;15.80;;;14.35;;
22284;SDS011;11311;52.192;20.900;2023-07-13T01:54:49;16.35;;;14.63;;
22284;SDS011;11311;52.192;20.900;2023-07-13T01:57:18;18.38;;;14.93;;
22284;SDS011;11311;52.192;20.900;2023-07-13T01:59:47;16.20;;;13.75;;
22284;SDS011;11311;52.192;20.900;2023-07-13T02:02:16;16.52;;;14.93;;
22284;SDS011;11311;52.192;20.900;2023-07-13T02:04:44;17.17;;;15.45;;
22284;SDS011;11311;52.192;20.900;2023-07-13T02:07:13;18.88;;;15.75;;
22284;SDS011;11311;52.192;20.900;2023-07-13T02:09:43;16.38;;;14.90;;
22284;SDS011;11311;52.192;20.900;2023-07-13T02:12:14;21.33;;;16.05;;
22284;SDS011;11311;52.192;20.900;2023-07-13T02:17:11;18.13;;;15.13;;
22284;SDS011;11311;52.192;20.900;2023-07-13T02:19:40;17.15;;;14.43;;
22284;SDS011;11311;52.192;20.900;2023-07-13T02:22:09;17.85;;;13.88;;
22284;SDS011;11311;52.192;20.900;2023-07-13T02:24:38;19.35;;;14.35;;
22284;SDS011;11311;52.192;20.900;2023-07-13T02:27:06;22.10;;;14.52;;
22284;SDS011;11311;52.192;20.900;2023-07-13T02:29:37;15.15;;;13.65;;
22284;SDS011;11311;52.192;20.900;2023-07-13T02:32:06;15.98;;;12.80;;
22284;SDS011;11311;52.192;20.900;2023-07-13T02:34:35;15.38;;;13.77;;
22284;SDS011;11311;52.192;20.900;2023-07-13T02:37:04;16.08;;;14.57;;
22284;SDS011;11311;52.192;20.900;2023-07-13T02:39:33;16.33;;;14.68;;
22284;SDS011;11311;52.192;20.900;2023-07-13T02:42:03;20.43;;;14.90;;
22284;SDS011;11311;52.192;20.900;2023-07-13T02:44:32;18.17;;;15.18;;
22284;SDS011;11311;52.192;20.900;2023-07-13T02:47:03;16.50;;;14.80;;
22284;SDS011;11311;52.192;20.900;2023-07-13T02:49:32;16.35;;;14.68;;
22284;SDS011;11311;52.192;20.900;2023-07-13T02:52:00;16.10;;;13.98;;
22284;SDS011;11311;52.192;20.900;2023-07-13T02:54:29;19.05;;;16.40;;
22284;SDS011;11311;52.192;20.900;2023-07-13T02:56:58;16.83;;;15.18;;
22284;SDS011;11311;52.192;20.900;2023-07-13T02:59:27;19.17;;;17.17;;
22284;SDS011;11311;52.192;20.900;2023-07-13T03:01:57;17.83;;;15.25;;
22284;SDS011;11311;52.192;20.900;2023-07-13T03:04:27;15.23;;;13.73;;
22284;SDS011;11311;52.192;20.900;2023-07-13T03:09:32;18.98;;;15.40;;
22284;SDS011;11311;52.192;20.900;2023-07-13T03:12:04;17.65;;;15.57;;
22284;SDS011;11311;52.192;20.900;2023-07-13T03:14:33;18.05;;;16.02;;
22284;SDS011;11311;52.192;20.900;2023-07-13T03:17:05;18.63;;;15.73;;
22284;SDS011;11311;52.192;20.900;2023-07-13T03:19:38;17.98;;;16.15;;
22284;SDS011;11311;52.192;20.900;2023-07-13T03:22:08;18.45;;;16.55;;
22284;SDS011;11311;52.192;20.900;2023-07-13T03:24:39;16.83;;;15.13;;
22284;SDS011;11311;52.192;20.900;2023-07-13T03:27:07;17.42;;;15.70;;
22284;SDS011;11311;52.192;20.900;2023-07-13T03:29:40;20.73;;;15.63;;
22284;SDS011;11311;52.192;20.900;2023-07-13T03:32:09;17.95;;;16.05;;
22284;SDS011;11311;52.192;20.900;2023-07-13T03:34:38;18.20;;;15.00;;
22284;SDS011;11311;52.192;20.900;2023-07-13T03:37:08;18.23;;;16.27;;
22284;SDS011;11311;52.192;20.900;2023-07-13T03:39:37;21.48;;;17.00;;
22284;SDS011;11311;52.192;20.900;2023-07-13T03:42:06;21.92;;;17.90;;
22284;SDS011;11311;52.192;20.900;2023-07-13T03:44:35;17.85;;;15.80;;
22284;SDS011;11311;52.192;20.900;2023-07-13T03:47:04;19.73;;;17.08;;
22284;SDS011;11311;52.192;20.900;2023-07-13T03:49:36;19.63;;;16.98;;
22284;SDS011;11311;52.192;20.900;2023-07-13T03:52:06;18.67;;;15.98;;
22284;SDS011;11311;52.192;20.900;2023-07-13T03:54:35;21.15;;;16.33;;
22284;SDS011;11311;52.192;20.900;2023-07-13T03:57:05;18.05;;;16.05;;
22284;SDS011;11311;52.192;20.900;2023-07-13T03:59:36;24.48;;;15.77;;
22284;SDS011;11311;52.192;20.900;2023-07-13T04:02:05;17.52;;;14.88;;
22284;SDS011;11311;52.192;20.900;2023-07-13T04:04:34;16.00;;;13.45;;
22284;SDS011;11311;52.192;20.900;2023-07-13T04:07:03;18.60;;;14.05;;
22284;SDS011;11311;52.192;20.900;2023-07-13T04:09:33;24.35;;;14.88;;
22284;SDS011;11311;52.192;20.900;2023-07-13T04:12:03;17.35;;;15.20;;
22284;SDS011;11311;52.192;20.900;2023-07-13T04:14:32;17.90;;;14.57;;
22284;SDS011;11311;52.192;20.900;2023-07-13T04:17:01;17.58;;;14.50;;
22284;SDS011;11311;52.192;20.900;2023-07-13T04:19:29;21.65;;;14.13;;
22284;SDS011;11311;52.192;20.900;2023-07-13T04:21:58;14.85;;;13.38;;
22284;SDS011;11311;52.192;20.900;2023-07-13T04:24:27;19.85;;;15.32;;
22284;SDS011;11311;52.192;20.900;2023-07-13T04:26:57;17.08;;;15.45;;
22284;SDS011;11311;52.192;20.900;2023-07-13T04:29:26;14.50;;;12.98;;
22284;SDS011;11311;52.192;20.900;2023-07-13T04:31:55;19.05;;;13.88;;
22284;SDS011;11311;52.192;20.900;2023-07-13T04:34:24;16.75;;;14.20;;
22284;SDS011;11311;52.192;20.900;2023-07-13T04:36:53;16.65;;;13.82;;
22284;SDS011;11311;52.192;20.900;2023-07-13T04:39:22;16.23;;;14.30;;
22284;SDS011;11311;52.192;20.900;2023-07-13T04:41:50;16.45;;;13.68;;
22284;SDS011;11311;52.192;20.900;2023-07-13T04:44:21;15.80;;;14.10;;
22284;SDS011;11311;52.192;20.900;2023-07-13T04:46:50;19.30;;;15.05;;
22284;SDS011;11311;52.192;20.900;2023-07-13T04:49:18;18.48;;;15.32;;
22284;SDS011;11311;52.192;20.900;2023-07-13T04:51:47;19.30;;;13.88;;
22284;SDS011;11311;52.192;20.900;2023-07-13T04:54:16;14.77;;;13.20;;
22284;SDS011;11311;52.192;20.900;2023-07-13T04:56:45;19.25;;;13.88;;
22284;SDS011;11311;52.192;20.900;2023-07-13T04:59:14;15.95;;;14.10;;
22284;SDS011;11311;52.192;20.900;2023-07-13T05:01:44;18.85;;;14.90;;
22284;SDS011;11311;52.192;20.900;2023-07-13T05:04:13;17.08;;;15.27;;
22284;SDS011;11311;52.192;20.900;2023-07-13T05:06:42;20.45;;;15.50;;
22284;SDS011;11311;52.192;20.900;2023-07-13T05:09:11;20.05;;;16.52;;
22284;SDS011;11311;52.192;20.900;2023-07-13T05:11:40;17.60;;;15.77;;
22284;SDS011;11311;52.192;20.900;2023-07-13T05:14:09;21.27;;;16.73;;
22284;SDS011;11311;52.192;20.900;2023-07-13T05:16:37;17.42;;;15.60;;
22284;SDS011;11311;52.192;20.900;2023-07-13T05:19:08;22.17;;;16.00;;
22284;SDS011;11311;52.192;20.900;2023-07-13T05:21:37;18.13;;;15.00;;
22284;SDS011;11311;52.192;20.900;2023-07-13T05:24:06;18.45;;;15.68;;
22284;SDS011;11311;52.192;20.900;2023-07-13T05:26:49;24.52;;;16.80;;
22284;SDS011;11311;52.192;20.900;2023-07-13T05:29:18;20.05;;;15.90;;
22284;SDS011;11311;52.192;20.900;2023-07-13T05:31:47;17.50;;;15.75;;
22284;SDS011;11311;52.192;20.900;2023-07-13T05:34:19;25.43;;;16.00;;
22284;SDS011;11311;52.192;20.900;2023-07-13T05:36:48;20.75;;;14.90;;
22284;SDS011;11311;52.192;20.900;2023-07-13T05:39:18;15.63;;;13.98;;
22284;SDS011;11311;52.192;20.900;2023-07-13T05:41:47;16.85;;;14.20;;
22284;SDS011;11311;52.192;20.900;2023-07-13T05:44:16;17.63;;;15.77;;
22284;SDS011;11311;52.192;20.900;2023-07-13T05:46:45;19.13;;;14.32;;
22284;SDS011;11311;52.192;20.900;2023-07-13T05:49:14;18.75;;;16.75;;
22284;SDS011;11311;52.192;20.900;2023-07-13T05:51:45;23.13;;;15.93;;
22284;SDS011;11311;52.192;20.900;2023-07-13T05:56:42;19.75;;;15.05;;
22284;SDS011;11311;52.192;20.900;2023-07-13T05:59:12;21.75;;;14.65;;
22284;SDS011;11311;52.192;20.900;2023-07-13T06:01:41;21.13;;;14.98;;
22284;SDS011;11311;52.192;20.900;2023-07-13T06:04:10;18.58;;;14.52;;
22284;SDS011;11311;52.192;20.900;2023-07-13T06:06:38;19.98;;;15.35;;
22284;SDS011;11311;52.192;20.900;2023-07-13T06:09:09;17.25;;;15.50;;
22284;SDS011;11311;52.192;20.900;2023-07-13T06:11:38;20.83;;;18.77;;
22284;SDS011;11311;52.192;20.900;2023-07-13T06:14:07;18.58;;;16.65;;
22284;SDS011;11311;52.192;20.900;2023-07-13T06:16:35;19.13;;;16.27;;
22284;SDS011;11311;52.192;20.900;2023-07-13T06:19:04;18.98;;;15.48;;
22284;SDS011;11311;52.192;20.900;2023-07-13T06:21:33;17.25;;;15.50;;
22284;SDS011;11311;52.192;20.900;2023-07-13T06:24:02;15.57;;;14.00;;
22284;SDS011;11311;52.192;20.900;2023-07-13T06:26:32;18.63;;;15.98;;
22284;SDS011;11311;52.192;20.900;2023-07-13T06:29:01;14.98;;;13.63;;
22284;SDS011;11311;52.192;20.900;2023-07-13T06:31:30;22.50;;;15.70;;
22284;SDS011;11311;52.192;20.900;2023-07-13T06:33:59;17.02;;;15.13;;
22284;SDS011;11311;52.192;20.900;2023-07-13T06:36:28;15.48;;;13.63;;
22284;SDS011;11311;52.192;20.900;2023-07-13T06:38:57;17.45;;;15.60;;
22284;SDS011;11311;52.192;20.900;2023-07-13T06:41:26;18.98;;;14.57;;
22284;SDS011;11311;52.192;20.900;2023-07-13T06:43:56;19.17;;;15.27;;
22284;SDS011;11311;52.192;20.900;2023-07-13T06:46:24;13.50;;;12.05;;
22284;SDS011;11311;52.192;20.900;2023-07-13T06:48:53;13.30;;;11.43;;
22284;SDS011;11311;52.192;20.900;2023-07-13T06:51:22;17.13;;;10.63;;
22284;SDS011;11311;52.192;20.900;2023-07-13T06:53:53;13.10;;;9.25;;
22284;SDS011;11311;52.192;20.900;2023-07-13T06:56:23;16.77;;;11.35;;
22284;SDS011;11311;52.192;20.900;2023-07-13T06:58:51;16.17;;;10.30;;
22284;SDS011;11311;52.192;20.900;2023-07-13T07:01:22;18.55;;;12.18;;
22284;SDS011;11311;52.192;20.900;2023-07-13T07:03:51;11.73;;;8.23;;
22284;SDS011;11311;52.192;20.900;2023-07-13T07:06:20;9.65;;;6.07;;
22284;SDS011;11311;52.192;20.900;2023-07-13T07:08:51;5.22;;;4.57;;
22284;SDS011;11311;52.192;20.900;2023-07-13T07:11:20;7.27;;;4.93;;
22284;SDS011;11311;52.192;20.900;2023-07-13T07:13:51;7.05;;;5.47;;
22284;SDS011;11311;52.192;20.900;2023-07-13T07:16:24;10.75;;;6.35;;
22284;SDS011;11311;52.192;20.900;2023-07-13T07:18:53;7.55;;;6.28;;
22284;SDS011;11311;52.192;20.900;2023-07-13T07:21:22;16.83;;;9.60;;
22284;SDS011;11311;52.192;20.900;2023-07-13T07:23:51;7.68;;;6.95;;
22284;SDS011;11311;52.192;20.900;2023-07-13T07:26:20;9.48;;;7.18;;
22284;SDS011;11311;52.192;20.900;2023-07-13T07:28:53;9.00;;;8.05;;
22284;SDS011;11311;52.192;20.900;2023-07-13T07:31:27;8.43;;;7.10;;
22284;SDS011;11311;52.192;20.900;2023-07-13T07:33:58;11.57;;;5.97;;
22284;SDS011;11311;52.192;20.900;2023-07-13T07:36:27;5.63;;;4.80;;
22284;SDS011;11311;52.192;20.900;2023-07-13T07:38:59;6.57;;;5.15;;
22284;SDS011;11311;52.192;20.900;2023-07-13T07:41:28;6.75;;;5.93;;
22284;SDS011;11311;52.192;20.900;2023-07-13T07:43:59;9.98;;;5.10;;
22284;SDS011;11311;52.192;20.900;2023-07-13T07:46:30;8.48;;;4.57;;
22284;SDS011;11311;52.192;20.900;2023-07-13T07:48:59;7.88;;;5.78;;
22284;SDS011;11311;52.192;20.900;2023-07-13T07:51:28;5.85;;;4.72;;
22284;SDS011;11311;52.192;20.900;2023-07-13T07:53:57;4.78;;;3.88;;
22284;SDS011;11311;52.192;20.900;2023-07-13T07:56:26;4.60;;;3.50;;
22284;SDS011;11311;52.192;20.900;2023-07-13T07:58:58;6.47;;;3.88;;
22284;SDS011;11311;52.192;20.900;2023-07-13T08:01:31;13.05;;;5.28;;
22284;SDS011;11311;52.192;20.900;2023-07-13T08:04:03;8.90;;;4.47;;
22284;SDS011;11311;52.192;20.900;2023-07-13T08:06:52;13.60;;;7.40;;
22284;SDS011;11311;52.192;20.900;2023-07-13T08:09:23;19.45;;;7.80;;
22284;SDS011;11311;52.192;20.900;2023-07-13T08:11:52;10.15;;;4.50;;
22284;SDS011;11311;52.192;20.900;2023-07-13T08:14:24;4.80;;;4.28;;
22284;SDS011;11311;52.192;20.900;2023-07-13T08:17:10;7.90;;;4.53;;
22284;SDS011;11311;52.192;20.900;2023-07-13T08:22:07;9.32;;;5.28;;
22284;SDS011;11311;52.192;20.900;2023-07-13T08:24:36;5.88;;;4.72;;
22284;SDS011;11311;52.192;20.900;2023-07-13T08:27:05;5.32;;;4.82;;
22284;SDS011;11311;52.192;20.900;2023-07-13T08:29:34;6.78;;;6.07;;
22284;SDS011;11311;52.192;20.900;2023-07-13T08:32:04;8.18;;;5.53;;
22284;SDS011;11311;52.192;20.900;2023-07-13T08:34:37;6.15;;;5.28;;
22284;SDS011;11311;52.192;20.900;2023-07-13T08:37:07;7.28;;;5.90;;
22284;SDS011;11311;52.192;20.900;2023-07-13T08:39:37;9.90;;;6.68;;
22284;SDS011;11311;52.192;20.900;2023-07-13T08:42:07;8.68;;;6.45;;
22284;SDS011;11311;52.192;20.900;2023-07-13T08:44:45;7.15;;;6.50;;
22284;SDS011;11311;52.192;20.900;2023-07-13T08:47:22;9.82;;;5.88;;
22284;SDS011;11311;52.192;20.900;2023-07-13T08:49:53;6.28;;;5.70;;
22284;SDS011;11311;52.192;20.900;2023-07-13T08:52:26;7.13;;;6.47;;
22284;SDS011;11311;52.192;20.900;2023-07-13T08:55:02;6.85;;;6.10;;
22284;SDS011;11311;52.192;20.900;2023-07-13T08:57:38;7.20;;;6.50;;
22284;SDS011;11311;52.192;20.900;2023-07-13T09:00:10;11.18;;;6.25;;
22284;SDS011;11311;52.192;20.900;2023-07-13T09:02:44;8.52;;;6.95;;
22284;SDS011;11311;52.192;20.900;2023-07-13T09:05:20;13.15;;;7.57;;
22284;SDS011;11311;52.192;20.900;2023-07-13T09:08:00;9.68;;;7.10;;
22284;SDS011;11311;52.192;20.900;2023-07-13T09:10:40;7.45;;;6.70;;
22284;SDS011;11311;52.192;20.900;2023-07-13T09:13:16;7.72;;;7.03;;
22284;SDS011;11311;52.192;20.900;2023-07-13T09:15:51;8.60;;;6.55;;
22284;SDS011;11311;52.192;20.900;2023-07-13T09:18:22;11.67;;;7.87;;
22284;SDS011;11311;52.192;20.900;2023-07-13T09:20:59;7.97;;;7.20;;
22284;SDS011;11311;52.192;20.900;2023-07-13T09:23:31;8.13;;;7.32;;
22284;SDS011;11311;52.192;20.900;2023-07-13T09:26:01;8.40;;;7.60;;
22284;SDS011;11311;52.192;20.900;2023-07-13T09:28:34;9.32;;;7.07;;
22284;SDS011;11311;52.192;20.900;2023-07-13T09:31:09;10.07;;;7.40;;
22284;SDS011;11311;52.192;20.900;2023-07-13T09:33:41;8.95;;;7.35;;
22284;SDS011;11311;52.192;20.900;2023-07-13T09:36:17;11.55;;;7.90;;
22284;SDS011;11311;52.192;20.900;2023-07-13T09:38:56;11.45;;;7.57;;
22284;SDS011;11311;52.192;20.900;2023-07-13T09:41:33;7.10;;;6.45;;
22284;SDS011;11311;52.192;20.900;2023-07-13T09:44:09;6.95;;;6.25;;
22284;SDS011;11311;52.192;20.900;2023-07-13T09:46:40;7.32;;;6.55;;
22284;SDS011;11311;52.192;20.900;2023-07-13T09:49:22;8.13;;;7.32;;
22284;SDS011;11311;52.192;20.900;2023-07-13T09:51:58;9.35;;;7.15;;
22284;SDS011;11311;52.192;20.900;2023-07-13T09:54:29;7.93;;;7.13;;
22284;SDS011;11311;52.192;20.900;2023-07-13T09:57:01;10.45;;;5.00;;
22284;SDS011;11311;52.192;20.900;2023-07-13T09:59:32;8.93;;;4.80;;
22284;SDS011;11311;52.192;20.900;2023-07-13T10:02:08;13.82;;;5.13;;
22284;SDS011;11311;52.192;20.900;2023-07-13T10:04:55;5.28;;;4.72;;
22284;SDS011;11311;52.192;20.900;2023-07-13T10:07:27;7.60;;;5.25;;
22284;SDS011;11311;52.192;20.900;2023-07-13T10:09:57;6.43;;;4.95;;
22284;SDS011;11311;52.192;20.900;2023-07-13T10:12:28;9.93;;;5.55;;
22284;SDS011;11311;52.192;20.900;2023-07-13T10:14:59;11.23;;;4.72;;
22284;SDS011;11311;52.192;20.900;2023-07-13T10:17:49;7.68;;;4.25;;
22284;SDS011;11311;52.192;20.900;2023-07-13T10:20:19;10.60;;;4.60;;
22284;SDS011;11311;52.192;20.900;2023-07-13T10:22:51;12.30;;;5.07;;
22284;SDS011;11311;52.192;20.900;2023-07-13T10:25:25;13.65;;;5.22;;
22284;SDS011;11311;52.192;20.900;2023-07-13T10:27:58;11.25;;;4.50;;
22284;SDS011;11311;52.192;20.900;2023-07-13T10:30:40;7.95;;;5.55;;
22284;SDS011;11311;52.192;20.900;2023-07-13T10:33:12;10.07;;;5.18;;
22284;SDS011;11311;52.192;20.900;2023-07-13T10:35:43;15.23;;;5.22;;
22284;SDS011;11311;52.192;20.900;2023-07-13T10:38:15;14.82;;;6.22;;
22284;SDS011;11311;52.192;20.900;2023-07-13T10:40:50;15.02;;;6.80;;
22284;SDS011;11311;52.192;20.900;2023-07-13T10:43:26;11.30;;;6.95;;
22284;SDS011;11311;52.192;20.900;2023-07-13T10:45:59;19.15;;;8.40;;
22284;SDS011;11311;52.192;20.900;2023-07-13T10:48:30;19.55;;;8.20;;
22284;SDS011;11311;52.192;20.900;2023-07-13T10:51:01;18.00;;;8.35;;
22284;SDS011;11311;52.192;20.900;2023-07-13T10:53:37;13.88;;;7.63;;
22284;SDS011;11311;52.192;20.900;2023-07-13T10:56:15;14.95;;;8.07;;
22284;SDS011;11311;52.192;20.900;2023-07-13T10:59:01;14.02;;;7.75;;
22284;SDS011;11311;52.192;20.900;2023-07-13T11:01:39;14.52;;;8.77;;
22284;SDS011;11311;52.192;20.900;2023-07-13T11:04:10;16.77;;;8.88;;
22284;SDS011;11311;52.192;20.900;2023-07-13T11:06:42;11.27;;;8.13;;
22284;SDS011;11311;52.192;20.900;2023-07-13T11:09:30;13.73;;;8.32;;
22284;SDS011;11311;52.192;20.900;2023-07-13T11:12:02;13.68;;;9.93;;
22284;SDS011;11311;52.192;20.900;2023-07-13T11:14:36;15.80;;;10.48;;
22284;SDS011;11311;52.192;20.900;2023-07-13T11:20:09;14.18;;;10.20;;
22284;SDS011;11311;52.192;20.900;2023-07-13T11:22:51;14.38;;;10.20;;
22284;SDS011;11311;52.192;20.900;2023-07-13T11:25:36;12.07;;;9.85;;
22284;SDS011;11311;52.192;20.900;2023-07-13T11:28:12;13.77;;;9.38;;
22284;SDS011;11311;52.192;20.900;2023-07-13T11:30:46;15.85;;;11.15;;
22284;SDS011;11311;52.192;20.900;2023-07-13T11:33:17;11.05;;;8.77;;
22284;SDS011;11311;52.192;20.900;2023-07-13T11:35:51;12.82;;;9.35;;
22284;SDS011;11311;52.192;20.900;2023-07-13T11:38:31;14.93;;;9.82;;
22284;SDS011;11311;52.192;20.900;2023-07-13T11:41:04;11.20;;;8.70;;
22284;SDS011;11311;52.192;20.900;2023-07-13T11:43:35;8.57;;;7.38;;
22284;SDS011;11311;52.192;20.900;2023-07-13T11:46:14;11.45;;;6.53;;
22284;SDS011;11311;52.192;20.900;2023-07-13T11:48:47;7.32;;;5.40;;
22284;SDS011;11311;52.192;20.900;2023-07-13T11:51:19;9.95;;;6.65;;
22284;SDS011;11311;52.192;20.900;2023-07-13T11:53:54;16.75;;;7.18;;
22284;SDS011;11311;52.192;20.900;2023-07-13T11:56:26;7.05;;;6.25;;
22284;SDS011;11311;52.192;20.900;2023-07-13T11:58:55;8.00;;;6.38;;
22284;SDS011;11311;52.192;20.900;2023-07-13T12:01:26;14.05;;;6.60;;
22284;SDS011;11311;52.192;20.900;2023-07-13T12:04:01;8.63;;;6.85;;
22284;SDS011;11311;52.192;20.900;2023-07-13T12:06:32;8.57;;;6.57;;
22284;SDS011;11311;52.192;20.900;2023-07-13T12:09:09;9.85;;;7.07;;
22284;SDS011;11311;52.192;20.900;2023-07-13T12:11:42;11.20;;;6.85;;
22284;SDS011;11311;52.192;20.900;2023-07-13T12:14:13;10.00;;;6.30;;
22284;SDS011;11311;52.192;20.900;2023-07-13T12:16:43;8.80;;;6.60;;
22284;SDS011;11311;52.192;20.900;2023-07-13T12:19:16;9.40;;;6.25;;
22284;SDS011;11311;52.192;20.900;2023-07-13T12:21:48;6.20;;;5.07;;
22284;SDS011;11311;52.192;20.900;2023-07-13T12:24:21;7.38;;;5.63;;
22284;SDS011;11311;52.192;20.900;2023-07-13T12:26:53;8.73;;;6.45;;
22284;SDS011;11311;52.192;20.900;2023-07-13T12:29:23;9.80;;;7.55;;
22284;SDS011;11311;52.192;20.900;2023-07-13T12:31:51;10.35;;;7.78;;
22284;SDS011;11311;52.192;20.900;2023-07-13T12:34:21;10.57;;;6.90;;
22284;SDS011;11311;52.192;20.900;2023-07-13T12:36:52;10.55;;;6.57;;
22284;SDS011;11311;52.192;20.900;2023-07-13T12:39:23;12.25;;;7.60;;
22284;SDS011;11311;52.192;20.900;2023-07-13T12:41:54;9.25;;;6.82;;
22284;SDS011;11311;52.192;20.900;2023-07-13T12:44:46;11.35;;;7.50;;
22284;SDS011;11311;52.192;20.900;2023-07-13T12:47:15;10.20;;;6.90;;
22284;SDS011;11311;52.192;20.900;2023-07-13T12:49:47;15.45;;;8.82;;
22284;SDS011;11311;52.192;20.900;2023-07-13T12:52:20;10.57;;;7.43;;
22284;SDS011;11311;52.192;20.900;2023-07-13T12:54:53;11.32;;;7.57;;
22284;SDS011;11311;52.192;20.900;2023-07-13T12:57:39;13.75;;;7.45;;
22284;SDS011;11311;52.192;20.900;2023-07-13T13:00:21;14.05;;;7.93;;
22284;SDS011;11311;52.192;20.900;2023-07-13T13:02:53;8.15;;;6.30;;
22284;SDS011;11311;52.192;20.900;2023-07-13T13:05:41;9.25;;;6.82;;
22284;SDS011;11311;52.192;20.900;2023-07-13T13:08:12;7.05;;;5.82;;
22284;SDS011;11311;52.192;20.900;2023-07-13T13:10:41;6.70;;;5.28;;
22284;SDS011;11311;52.192;20.900;2023-07-13T13:13:12;5.95;;;5.43;;
22284;SDS011;11311;52.192;20.900;2023-07-13T13:15:41;7.13;;;5.72;;
22284;SDS011;11311;52.192;20.900;2023-07-13T13:18:14;6.80;;;5.20;;
22284;SDS011;11311;52.192;20.900;2023-07-13T13:20:45;8.23;;;6.30;;
22284;SDS011;11311;52.192;20.900;2023-07-13T13:23:15;6.70;;;6.07;;
22284;SDS011;11311;52.192;20.900;2023-07-13T13:25:45;10.27;;;5.57;;
22284;SDS011;11311;52.192;20.900;2023-07-13T13:28:17;8.55;;;6.00;;
22284;SDS011;11311;52.192;20.900;2023-07-13T13:30:49;17.00;;;5.93;;
22284;SDS011;11311;52.192;20.900;2023-07-13T13:33:19;6.68;;;5.50;;
22284;SDS011;11311;52.192;20.900;2023-07-13T13:35:50;8.10;;;5.90;;
22284;SDS011;11311;52.192;20.900;2023-07-13T13:38:20;7.97;;;6.05;;
22284;SDS011;11311;52.192;20.900;2023-07-13T13:40:52;7.95;;;6.50;;
22284;SDS011;11311;52.192;20.900;2023-07-13T13:43:23;8.48;;;5.68;;
22284;SDS011;11311;52.192;20.900;2023-07-13T13:45:55;6.97;;;5.70;;
22284;SDS011;11311;52.192;20.900;2023-07-13T13:48:26;6.15;;;5.43;;
22284;SDS011;11311;52.192;20.900;2023-07-13T13:50:59;10.18;;;5.95;;
22284;SDS011;11311;52.192;20.900;2023-07-13T13:53:30;8.77;;;5.55;;
22284;SDS011;11311;52.192;20.900;2023-07-13T13:56:00;6.13;;;5.40;;
22284;SDS011;11311;52.192;20.900;2023-07-13T13:58:30;11.00;;;7.03;;
22284;SDS011;11311;52.192;20.900;2023-07-13T14:00:59;14.55;;;7.55;;
22284;SDS011;11311;52.192;20.900;2023-07-13T14:03:28;8.18;;;7.00;;
22284;SDS011;11311;52.192;20.900;2023-07-13T14:05:56;9.75;;;7.93;;
22284;SDS011;11311;52.192;20.900;2023-07-13T14:08:25;9.20;;;6.78;;
22284;SDS011;11311;52.192;20.900;2023-07-13T14:10:55;12.25;;;8.65;;
22284;SDS011;11311;52.192;20.900;2023-07-13T14:13:27;13.65;;;8.10;;
22284;SDS011;11311;52.192;20.900;2023-07-13T14:16:01;9.27;;;7.85;;
22284;SDS011;11311;52.192;20.900;2023-07-13T14:18:31;11.43;;;7.40;;
22284;SDS011;11311;52.192;20.900;2023-07-13T14:21:00;10.93;;;8.10;;
22284;SDS011;11311;52.192;20.900;2023-07-13T14:23:29;12.05;;;9.10;;
22284;SDS011;11311;52.192;20.900;2023-07-13T14:25:58;10.20;;;8.57;;
22284;SDS011;11311;52.192;20.900;2023-07-13T14:28:27;11.35;;;9.48;;
22284;SDS011;11311;52.192;20.900;2023-07-13T14:30:57;10.77;;;9.68;;
22284;SDS011;11311;52.192;20.900;2023-07-13T14:33:26;10.25;;;9.02;;
22284;SDS011;11311;52.192;20.900;2023-07-13T14:35:55;12.23;;;9.02;;
22284;SDS011;11311;52.192;20.900;2023-07-13T14:38:24;8.73;;;7.88;;
22284;SDS011;11311;52.192;20.900;2023-07-13T14:40:55;15.55;;;8.02;;
22284;SDS011;11311;52.192;20.900;2023-07-13T14:43:25;10.07;;;9.05;;
22284;SDS011;11311;52.192;20.900;2023-07-13T14:45:57;13.13;;;8.98;;
22284;SDS011;11311;52.192;20.900;2023-07-13T14:48:27;12.95;;;9.07;;
22284;SDS011;11311;52.192;20.900;2023-07-13T14:50:56;11.95;;;10.07;;
22284;SDS011;11311;52.192;20.900;2023-07-13T14:53:26;14.02;;;10.10;;
22284;SDS011;11311;52.192;20.900;2023-07-13T14:55:56;10.68;;;9.57;;
22284;SDS011;11311;52.192;20.900;2023-07-13T14:58:24;16.35;;;9.75;;